createdAt,value
2018-11-27T00:00:35.190Z,100221.85
2018-11-27T00:03:06.597Z,100220.14
2018-11-27T00:05:36.591Z,100222.70
2018-11-27T00:08:05.912Z,100228.98
2018-11-27T00:10:36.643Z,100227.27
2018-11-27T00:13:05.885Z,100231.05
2018-11-27T00:15:35.124Z,100234.41
2018-11-27T00:18:04.320Z,100241.24
2018-11-27T00:20:33.656Z,100245.80
2018-11-27T00:23:02.907Z,100245.98
2018-11-27T00:25:32.145Z,100251.23
2018-11-27T00:28:01.483Z,100240.91
2018-11-27T00:30:30.756Z,100245.69
2018-11-27T00:33:00.035Z,100236.58
2018-11-27T00:35:29.409Z,100247.06
2018-11-27T00:37:58.752Z,100251.80
2018-11-27T00:40:28.174Z,100249.20
2018-11-27T00:42:57.555Z,100262.65
2018-11-27T00:45:27.095Z,100259.23
2018-11-27T00:47:56.512Z,100260.38
2018-11-27T00:50:26.080Z,100262.39
2018-11-27T00:52:55.479Z,100271.55
2018-11-27T00:55:24.772Z,100269.42
2018-11-27T00:57:54.383Z,100272.36
2018-11-27T01:00:24.774Z,100271.88
2018-11-27T01:02:53.995Z,100271.62
2018-11-27T01:05:24.302Z,100273.89
2018-11-27T01:07:53.637Z,100275.37
2018-11-27T01:10:25.743Z,100279.05
2018-11-27T01:12:54.896Z,100281.30
2018-11-27T01:15:24.301Z,100282.23
2018-11-27T01:17:56.877Z,100285.94
2018-11-27T01:20:26.603Z,100288.05
2018-11-27T01:22:55.937Z,100290.93
2018-11-27T01:25:25.152Z,100291.05
2018-11-27T01:27:54.347Z,100287.37
2018-11-27T01:30:24.172Z,100290.30
2018-11-27T01:32:53.435Z,100294.70
2018-11-27T01:35:23.876Z,100296.92
2018-11-27T01:37:54.106Z,100296.61
2018-11-27T01:40:25.020Z,100299.91
2018-11-27T01:42:54.935Z,100302.79
2018-11-27T01:45:24.512Z,100308.47
2018-11-27T01:47:53.658Z,100303.40
2018-11-27T01:50:22.984Z,100308.67
2018-11-27T01:52:52.311Z,100302.95
2018-11-27T01:55:22.334Z,100306.05
2018-11-27T01:57:51.626Z,100304.25
2018-11-27T02:00:29.272Z,100311.73
2018-11-27T02:02:59.272Z,100307.00
2018-11-27T02:05:28.992Z,100307.61
2018-11-27T02:07:58.253Z,100311.33
2018-11-27T02:10:27.515Z,100313.02
2018-11-27T02:13:01.201Z,100311.58
2018-11-27T02:15:29.263Z,100318.42
2018-11-27T02:17:58.674Z,100312.84
2018-11-27T02:20:27.893Z,100318.13
2018-11-27T02:22:57.241Z,100317.78
2018-11-27T02:25:29.522Z,100301.98
2018-11-27T02:27:58.906Z,100314.44
2018-11-27T02:30:28.717Z,100311.73
2018-11-27T02:32:57.990Z,100311.70
2018-11-27T02:35:27.739Z,100311.36
2018-11-27T02:37:58.714Z,100308.88
2018-11-27T02:40:27.943Z,100309.64
2018-11-27T02:42:57.158Z,100306.77
2018-11-27T02:45:26.951Z,100311.91
2018-11-27T02:47:56.433Z,100307.66
2018-11-27T02:50:26.512Z,100307.35
2018-11-27T02:52:56.000Z,100314.52
2018-11-27T02:55:26.455Z,100317.83
2018-11-27T02:57:55.739Z,100318.23
2018-11-27T03:00:25.944Z,100311.20
2018-11-27T03:03:01.729Z,100313.89
2018-11-27T03:05:35.273Z,100313.05
2018-11-27T03:08:04.721Z,100314.03
2018-11-27T03:10:33.881Z,100320.91
2018-11-27T03:13:03.218Z,100323.96
2018-11-27T03:15:32.461Z,100321.94
2018-11-27T03:18:01.784Z,100327.45
2018-11-27T03:20:31.188Z,100325.72
2018-11-27T03:23:00.540Z,100326.08
2018-11-27T03:25:29.807Z,100328.88
2018-11-27T03:27:59.233Z,100332.73
2018-11-27T03:30:28.598Z,100329.01
2018-11-27T03:32:57.842Z,100328.61
2018-11-27T03:35:27.234Z,100339.72
2018-11-27T03:37:56.629Z,100343.09
2018-11-27T03:40:27.232Z,100338.50
2018-11-27T03:42:56.528Z,100341.00
2018-11-27T03:45:26.232Z,100340.05
2018-11-27T03:47:55.531Z,100345.70
2018-11-27T03:50:27.018Z,100352.53
2018-11-27T03:52:56.391Z,100359.05
2018-11-27T03:55:25.836Z,100354.64
2018-11-27T03:57:55.296Z,100363.02
2018-11-27T04:00:26.266Z,100361.41
2018-11-27T04:03:00.930Z,100358.03
2018-11-27T04:05:30.296Z,100367.54
2018-11-27T04:07:59.588Z,100361.57
2018-11-27T04:10:29.105Z,100360.42
2018-11-27T04:12:58.359Z,100358.38
2018-11-27T04:15:27.853Z,100365.64
2018-11-27T04:17:57.102Z,100360.64
2018-11-27T04:20:26.404Z,100366.95
2018-11-27T04:22:55.725Z,100357.89
2018-11-27T04:25:25.027Z,100363.64
2018-11-27T04:27:54.353Z,100364.02
2018-11-27T04:30:23.880Z,100371.80
2018-11-27T04:32:53.172Z,100367.01
2018-11-27T04:35:23.097Z,100363.72
2018-11-27T04:37:52.384Z,100370.13
2018-11-27T04:40:22.412Z,100364.89
2018-11-27T04:42:51.746Z,100365.41
2018-11-27T04:45:24.474Z,100379.52
2018-11-27T04:47:53.813Z,100371.59
2018-11-27T04:50:23.320Z,100378.81
2018-11-27T04:52:52.590Z,100379.83
2018-11-27T04:55:22.368Z,100384.36
2018-11-27T04:57:53.158Z,100387.29
2018-11-27T05:00:29.151Z,100394.62
2018-11-27T05:02:58.509Z,100390.89
2018-11-27T05:05:27.760Z,100390.42
2018-11-27T05:07:57.043Z,100388.93
2018-11-27T05:10:26.322Z,100396.85
2018-11-27T05:12:55.649Z,100394.79
2018-11-27T05:15:26.384Z,100399.76
2018-11-27T05:17:56.404Z,100402.59
2018-11-27T05:20:25.384Z,100404.09
2018-11-27T05:22:54.402Z,100405.19
2018-11-27T05:25:23.403Z,100411.23
2018-11-27T05:27:53.634Z,100413.13
2018-11-27T05:30:24.589Z,100397.97
2018-11-27T05:32:53.651Z,100400.69
2018-11-27T05:35:30.997Z,100410.02
2018-11-27T05:38:01.660Z,100408.44
2018-11-27T05:40:30.685Z,100413.45
2018-11-27T05:43:02.079Z,100410.97
2018-11-27T05:45:31.141Z,100407.75
2018-11-27T05:48:00.136Z,100409.17
2018-11-27T05:50:29.104Z,100416.15
2018-11-27T05:52:58.121Z,100425.26
2018-11-27T05:55:27.098Z,100427.25
2018-11-27T05:57:56.793Z,100424.56
2018-11-27T06:00:26.796Z,100424.52
2018-11-27T06:02:59.954Z,100440.28
2018-11-27T06:05:29.064Z,100434.26
2018-11-27T06:07:58.102Z,100445.17
2018-11-27T06:10:27.165Z,100441.70
2018-11-27T06:12:56.235Z,100441.62
2018-11-27T06:15:25.691Z,100445.30
2018-11-27T06:17:56.974Z,100442.03
2018-11-27T06:20:25.943Z,100449.92
2018-11-27T06:22:55.364Z,100453.66
2018-11-27T06:25:26.315Z,100456.88
2018-11-27T06:28:00.333Z,100467.26
2018-11-27T06:30:30.292Z,100463.64
2018-11-27T06:32:59.314Z,100467.63
2018-11-27T06:35:30.561Z,100471.20
2018-11-27T06:37:59.543Z,100473.82
2018-11-27T06:40:29.786Z,100477.05
2018-11-27T06:42:58.813Z,100488.63
2018-11-27T06:45:27.789Z,100494.73
2018-11-27T06:47:56.843Z,100495.47
2018-11-27T06:50:25.808Z,100496.55
2018-11-27T06:52:54.743Z,100501.98
2018-11-27T06:55:24.676Z,100499.49
2018-11-27T06:57:53.728Z,100503.64
2018-11-27T07:00:29.874Z,100504.38
2018-11-27T07:02:59.495Z,100500.34
2018-11-27T07:05:28.519Z,100503.53
2018-11-27T07:07:57.463Z,100510.86
2018-11-27T07:10:32.778Z,100515.27
2018-11-27T07:13:18.985Z,100521.66
2018-11-27T07:15:48.675Z,100525.25
2018-11-27T07:18:17.607Z,100534.39
2018-11-27T07:20:46.623Z,100538.03
2018-11-27T07:23:15.591Z,100542.31
2018-11-27T07:25:44.655Z,100550.05
2018-11-27T07:28:13.616Z,100537.02
2018-11-27T07:30:42.984Z,100550.05
2018-11-27T07:33:11.897Z,100555.69
2018-11-27T07:35:40.921Z,100553.43
2018-11-27T07:38:09.857Z,100549.47
2018-11-27T07:40:39.577Z,100550.16
2018-11-27T07:43:10.955Z,100555.83
2018-11-27T07:45:40.506Z,100567.41
2018-11-27T07:48:10.548Z,100566.45
2018-11-27T07:50:39.536Z,100566.00
2018-11-27T07:53:08.677Z,100571.91
2018-11-27T07:55:37.689Z,100567.42
2018-11-27T07:58:07.303Z,100574.09
2018-11-27T08:00:36.811Z,100573.42
2018-11-27T08:03:06.475Z,100570.42
2018-11-27T08:05:39.765Z,100576.25
2018-11-27T08:08:12.062Z,100578.06
2018-11-27T08:10:41.394Z,100574.93
2018-11-27T08:13:10.964Z,100577.50
2018-11-27T08:15:40.082Z,100584.57
2018-11-27T08:18:09.822Z,100584.20
2018-11-27T08:20:38.847Z,100589.82
2018-11-27T08:23:09.103Z,100583.91
2018-11-27T08:25:38.109Z,100587.83
2018-11-27T08:28:07.808Z,100589.40
2018-11-27T08:30:36.906Z,100597.85
2018-11-27T08:33:06.268Z,100592.30
2018-11-27T08:35:35.262Z,100605.14
2018-11-27T08:38:04.237Z,100605.80
2018-11-27T08:40:34.223Z,100606.44
2018-11-27T08:43:03.306Z,100603.07
2018-11-27T08:45:32.291Z,100610.81
2018-11-27T08:48:01.226Z,100617.05
2018-11-27T08:50:30.213Z,100622.67
2018-11-27T08:53:00.545Z,100616.31
2018-11-27T08:55:32.952Z,100617.05
2018-11-27T08:58:02.752Z,100616.09
2018-11-27T09:00:31.749Z,100629.03
2018-11-27T09:03:00.731Z,100629.64
2018-11-27T09:05:29.751Z,100630.80
2018-11-27T09:07:58.707Z,100647.11
2018-11-27T09:10:27.741Z,100641.65
2018-11-27T09:12:56.809Z,100646.94
2018-11-27T09:15:25.776Z,100652.97
2018-11-27T09:18:02.545Z,100651.73
2018-11-27T09:20:31.555Z,100653.27
2018-11-27T09:23:00.585Z,100656.68
2018-11-27T09:25:29.574Z,100656.09
2018-11-27T09:27:58.586Z,100662.50
2018-11-27T09:30:27.844Z,100659.66
2018-11-27T09:32:57.411Z,100666.68
2018-11-27T09:35:26.841Z,100671.34
2018-11-27T09:37:55.896Z,100675.45
2018-11-27T09:40:24.839Z,100680.16
2018-11-27T09:42:53.877Z,100685.45
2018-11-27T09:45:25.020Z,100688.91
2018-11-27T09:47:56.338Z,100685.02
2018-11-27T09:50:25.464Z,100683.92
2018-11-27T09:52:54.792Z,100679.91
2018-11-27T09:55:28.403Z,100674.13
2018-11-27T09:57:59.387Z,100675.81
2018-11-27T10:00:27.945Z,100681.41
2018-11-27T10:02:58.156Z,100682.52
2018-11-27T10:05:27.177Z,100684.22
2018-11-27T10:07:56.176Z,100681.02
2018-11-27T10:10:25.992Z,100678.08
2018-11-27T10:12:54.989Z,100676.30
2018-11-27T10:15:25.136Z,100676.27
2018-11-27T10:17:56.325Z,100682.44
2018-11-27T10:20:56.441Z,100684.41
2018-11-27T10:23:25.440Z,100680.55
2018-11-27T10:25:54.455Z,100683.28
2018-11-27T10:28:23.613Z,100684.05
2018-11-27T10:30:52.592Z,100689.28
2018-11-27T10:33:21.598Z,100689.30
2018-11-27T10:35:54.125Z,100681.82
2018-11-27T10:38:23.128Z,100683.64
2018-11-27T10:40:52.108Z,100680.35
2018-11-27T10:43:21.107Z,100681.09
2018-11-27T10:45:50.051Z,100677.61
2018-11-27T10:48:19.075Z,100672.33
2018-11-27T10:50:48.042Z,100669.95
2018-11-27T10:53:17.045Z,100679.12
2018-11-27T10:55:45.988Z,100678.58
2018-11-27T10:58:15.120Z,100680.36
2018-11-27T11:00:49.140Z,100680.56
2018-11-27T11:03:48.866Z,100672.81
2018-11-27T11:06:17.836Z,100666.95
2018-11-27T11:08:46.847Z,100668.95
2018-11-27T11:11:15.845Z,100674.86
2018-11-27T11:13:44.940Z,100679.88
2018-11-27T11:16:13.866Z,100683.11
2018-11-27T11:18:43.126Z,100683.09
2018-11-27T11:21:13.053Z,100688.58
2018-11-27T11:23:42.362Z,100685.55
2018-11-27T11:26:11.871Z,100689.88
2018-11-27T11:28:41.267Z,100686.00
2018-11-27T11:31:10.512Z,100694.31
2018-11-27T11:33:40.072Z,100698.12
2018-11-27T11:36:09.437Z,100694.98
2018-11-27T11:38:38.729Z,100701.78
2018-11-27T11:41:08.267Z,100701.70
2018-11-27T11:43:37.561Z,100710.87
2018-11-27T11:46:07.381Z,100714.17
2018-11-27T11:48:36.737Z,100717.58
2018-11-27T11:51:06.296Z,100719.82
2018-11-27T11:53:35.557Z,100715.55
2018-11-27T11:56:04.907Z,100715.55
2018-11-27T11:58:34.195Z,100723.86
2018-11-27T12:01:03.627Z,100721.78
2018-11-27T12:03:32.892Z,100725.84
2018-11-27T12:06:02.316Z,100725.95
2018-11-27T12:08:31.670Z,100726.81
2018-11-27T12:11:00.667Z,100730.10
2018-11-27T12:13:29.991Z,100730.58
2018-11-27T12:15:59.405Z,100731.53
2018-11-27T12:18:28.642Z,100731.03
2018-11-27T12:20:58.024Z,100730.47
2018-11-27T12:23:27.408Z,100732.95
2018-11-27T12:25:56.720Z,100726.52
2018-11-27T12:28:26.074Z,100723.40
2018-11-27T12:30:55.513Z,100721.42
2018-11-27T12:33:24.807Z,100723.86
2018-11-27T12:35:54.216Z,100730.85
2018-11-27T12:38:23.646Z,100732.28
2018-11-27T12:40:52.951Z,100731.45
2018-11-27T12:43:22.240Z,100729.73
2018-11-27T12:45:51.488Z,100741.63
2018-11-27T12:48:20.709Z,100743.72
2018-11-27T12:50:50.430Z,100749.83
2018-11-27T12:53:19.949Z,100748.81
2018-11-27T12:55:50.204Z,100754.39
2018-11-27T12:58:19.469Z,100750.89
2018-11-27T13:00:48.717Z,100756.70
2018-11-27T13:03:17.988Z,100760.52
2018-11-27T13:05:47.816Z,100761.35
2018-11-27T13:08:18.354Z,100760.50
2018-11-27T13:10:47.640Z,100754.28
2018-11-27T13:13:17.094Z,100755.82
2018-11-27T13:15:46.451Z,100757.88
2018-11-27T13:18:15.700Z,100752.92
2018-11-27T13:20:44.976Z,100761.23
2018-11-27T13:23:14.223Z,100765.29
2018-11-27T13:25:43.656Z,100767.27
2018-11-27T13:28:14.053Z,100767.37
2018-11-27T13:30:51.003Z,100767.45
2018-11-27T13:33:22.025Z,100765.77
2018-11-27T13:35:51.436Z,100769.34
2018-11-27T13:38:20.749Z,100771.42
2018-11-27T13:40:49.940Z,100769.09
2018-11-27T13:43:25.438Z,100759.53
2018-11-27T13:45:54.860Z,100765.13
2018-11-27T13:48:24.125Z,100766.14
2018-11-27T13:50:53.348Z,100763.40
2018-11-27T13:53:22.596Z,100767.93
2018-11-27T13:55:51.847Z,100768.91
2018-11-27T13:58:21.119Z,100769.53
2018-11-27T14:00:50.356Z,100765.03
2018-11-27T14:03:19.618Z,100768.63
2018-11-27T14:05:49.016Z,100766.55
2018-11-27T14:08:18.588Z,100767.49
2018-11-27T14:10:47.923Z,100760.52
2018-11-27T14:13:17.205Z,100770.53
2018-11-27T14:15:46.519Z,100771.97
2018-11-27T14:18:15.887Z,100775.27
2018-11-27T14:20:46.092Z,100787.54
2018-11-27T14:23:14.587Z,100789.64
2018-11-27T14:25:43.928Z,100791.33
2018-11-27T14:28:13.179Z,100788.95
2018-11-27T14:30:42.445Z,100794.53
2018-11-27T14:33:11.669Z,100796.61
2018-11-27T14:35:40.912Z,100802.25
2018-11-27T14:38:10.194Z,100812.27
2018-11-27T14:40:39.440Z,100814.12
2018-11-27T14:43:08.706Z,100810.22
2018-11-27T14:45:38.017Z,100806.72
2018-11-27T14:48:07.764Z,100809.32
2018-11-27T14:50:37.040Z,100813.27
2018-11-27T14:53:06.324Z,100813.84
2018-11-27T14:55:36.351Z,100812.61
2018-11-27T14:58:05.736Z,100814.73
2018-11-27T15:00:35.164Z,100818.88
2018-11-27T15:03:04.516Z,100814.34
2018-11-27T15:05:35.659Z,100815.79
2018-11-27T15:08:05.574Z,100824.91
2018-11-27T15:10:34.831Z,100832.02
2018-11-27T15:13:04.098Z,100830.38
2018-11-27T15:15:33.628Z,100830.17
2018-11-27T15:18:02.911Z,100832.01
2018-11-27T15:20:32.271Z,100831.95
2018-11-27T15:23:01.435Z,100832.64
2018-11-27T15:25:30.708Z,100837.55
2018-11-27T15:28:00.039Z,100835.52
2018-11-27T15:30:31.668Z,100839.02
2018-11-27T15:33:01.556Z,100843.61
2018-11-27T15:35:30.770Z,100849.45
2018-11-27T15:38:00.198Z,100845.04
2018-11-27T15:40:30.438Z,100845.63
2018-11-27T15:42:59.969Z,100846.72
2018-11-27T15:45:32.188Z,100855.11
2018-11-27T15:48:01.497Z,100858.89
2018-11-27T15:50:30.758Z,100858.75
2018-11-27T15:53:00.084Z,100863.64
2018-11-27T15:55:30.481Z,100865.77
2018-11-27T15:58:02.062Z,100870.09
2018-11-27T16:00:31.469Z,100872.03
2018-11-27T16:03:01.042Z,100867.78
2018-11-27T16:05:30.182Z,100873.41
2018-11-27T16:07:59.383Z,100873.41
2018-11-27T16:10:28.652Z,100877.31
2018-11-27T16:12:58.105Z,100879.34
2018-11-27T16:15:27.327Z,100882.67
2018-11-27T16:17:56.592Z,100883.01
2018-11-27T16:20:25.838Z,100882.09
2018-11-27T16:22:55.076Z,100889.45
2018-11-27T16:25:26.008Z,100887.95
2018-11-27T16:27:55.197Z,100888.42
2018-11-27T16:30:25.376Z,100891.53
2018-11-27T16:32:54.521Z,100891.88
2018-11-27T16:35:23.938Z,100883.61
2018-11-27T16:37:57.300Z,100889.92
2018-11-27T16:40:35.787Z,100892.17
2018-11-27T16:43:05.140Z,100893.27
2018-11-27T16:45:34.414Z,100899.03
2018-11-27T16:48:03.755Z,100884.13
2018-11-27T16:50:33.010Z,100894.61
2018-11-27T16:53:02.309Z,100892.69
2018-11-27T16:55:31.661Z,100899.80
2018-11-27T16:58:00.916Z,100896.17
2018-11-27T17:00:31.991Z,100905.94
2018-11-27T17:03:03.108Z,100909.69
2018-11-27T17:05:34.166Z,100909.77
2018-11-27T17:08:03.470Z,100916.35
2018-11-27T17:10:32.891Z,100921.14
2018-11-27T17:13:02.448Z,100920.69
2018-11-27T17:15:31.814Z,100914.96
2018-11-27T17:18:01.121Z,100926.14
2018-11-27T17:20:34.308Z,100923.73
2018-11-27T17:23:05.895Z,100914.37
2018-11-27T17:25:35.230Z,100911.34
2018-11-27T17:28:06.895Z,100914.41
2018-11-27T17:30:40.103Z,100912.73
2018-11-27T17:33:11.384Z,100925.76
2018-11-27T17:35:41.155Z,100924.41
2018-11-27T17:38:10.438Z,100926.52
2018-11-27T17:40:39.756Z,100929.23
2018-11-27T17:43:09.132Z,100936.69
2018-11-27T17:45:39.105Z,100924.61
2018-11-27T17:48:08.316Z,100927.98
2018-11-27T17:50:37.766Z,100918.25
2018-11-27T17:53:07.263Z,100933.67
2018-11-27T17:55:36.669Z,100937.91
2018-11-27T17:58:06.627Z,100938.37
2018-11-27T18:00:35.947Z,100938.41
2018-11-27T18:03:08.085Z,100938.78
2018-11-27T18:05:37.582Z,100940.11
2018-11-27T18:08:07.632Z,100937.56
2018-11-27T18:10:37.640Z,100936.42
2018-11-27T18:13:07.508Z,100938.92
2018-11-27T18:15:37.754Z,100945.66
2018-11-27T18:18:07.595Z,100938.26
2018-11-27T18:20:37.457Z,100943.92
2018-11-27T18:23:06.716Z,100939.32
2018-11-27T18:25:36.006Z,100936.80
2018-11-27T18:28:05.235Z,100946.11
2018-11-27T18:30:34.554Z,100951.77
2018-11-27T18:33:03.839Z,100948.67
2018-11-27T18:35:33.095Z,100942.68
2018-11-27T18:38:02.473Z,100946.34
2018-11-27T18:40:31.888Z,100950.39
2018-11-27T18:43:01.157Z,100952.26
2018-11-27T18:45:31.571Z,100956.52
2018-11-27T18:48:00.887Z,100962.68
2018-11-27T18:50:31.465Z,100957.23
2018-11-27T18:53:00.779Z,100954.91
2018-11-27T18:55:29.983Z,100954.63
2018-11-27T18:57:59.445Z,100958.17
2018-11-27T19:00:29.776Z,100950.67
2018-11-27T19:02:59.135Z,100954.09
2018-11-27T19:05:28.974Z,100949.84
2018-11-27T19:07:58.363Z,100949.74
2018-11-27T19:10:30.786Z,100956.80
2018-11-27T19:13:00.140Z,100956.59
2018-11-27T19:15:32.856Z,100957.26
2018-11-27T19:18:04.957Z,100964.62
2018-11-27T19:20:34.176Z,100961.61
2018-11-27T19:23:03.496Z,100962.55
2018-11-27T19:25:32.672Z,100970.31
2018-11-27T19:28:02.338Z,100967.66
2018-11-27T19:30:32.308Z,100975.38
2018-11-27T19:33:03.025Z,100977.20
2018-11-27T19:35:32.341Z,100985.91
2018-11-27T19:38:01.961Z,100988.54
2018-11-27T19:40:31.219Z,100982.87
2018-11-27T19:43:00.452Z,100995.11
2018-11-27T19:45:29.861Z,100987.61
2018-11-27T19:47:59.283Z,100983.72
2018-11-27T19:50:28.731Z,100991.41
2018-11-27T19:52:58.471Z,100985.11
2018-11-27T19:55:27.765Z,100988.83
2018-11-27T19:57:57.235Z,100987.84
2018-11-27T20:00:28.783Z,100983.02
2018-11-27T20:02:58.354Z,100976.27
2018-11-27T20:05:28.719Z,100975.56
2018-11-27T20:07:58.370Z,100982.25
2018-11-27T20:10:27.876Z,100981.31
2018-11-27T20:12:57.378Z,100983.95
2018-11-27T20:15:29.346Z,100986.91
2018-11-27T20:17:58.819Z,100988.77
2018-11-27T20:20:29.247Z,100996.10
2018-11-27T20:22:58.964Z,100992.19
2018-11-27T20:25:28.415Z,100995.34
2018-11-27T20:27:58.104Z,100999.07
2018-11-27T20:30:28.592Z,100998.22
2018-11-27T20:33:01.225Z,101001.16
2018-11-27T20:35:30.944Z,101000.23
2018-11-27T20:38:01.310Z,100999.16
2018-11-27T20:40:30.644Z,100998.19
2018-11-27T20:42:59.944Z,101008.09
2018-11-27T20:45:29.385Z,101009.70
2018-11-27T20:48:06.620Z,101005.63
2018-11-27T20:50:36.059Z,101001.30
2018-11-27T20:53:05.224Z,101010.37
2018-11-27T20:55:34.748Z,101014.02
2018-11-27T20:58:04.153Z,101016.03
2018-11-27T21:00:37.008Z,101015.42
2018-11-27T21:03:07.221Z,101016.27
2018-11-27T21:05:36.678Z,101026.53
2018-11-27T21:08:06.251Z,101027.55
2018-11-27T21:10:36.695Z,101026.48
2018-11-27T21:13:06.365Z,101023.75
2018-11-27T21:15:35.816Z,101025.73
2018-11-27T21:18:05.305Z,101021.01
2018-11-27T21:20:34.851Z,101021.34
2018-11-27T21:23:04.443Z,101024.20
2018-11-27T21:25:33.680Z,101022.56
2018-11-27T21:28:12.360Z,101017.86
2018-11-27T21:30:41.708Z,101018.92
2018-11-27T21:33:10.943Z,101018.69
2018-11-27T21:35:40.164Z,101015.03
2018-11-27T21:38:09.644Z,101017.14
2018-11-27T21:40:39.302Z,101017.38
2018-11-27T21:43:09.752Z,101018.84
2018-11-27T21:45:39.105Z,101024.88
2018-11-27T21:48:08.921Z,101032.64
2018-11-27T21:50:43.350Z,101028.95
2018-11-27T21:53:12.717Z,101028.30
2018-11-27T21:55:42.868Z,101031.09
2018-11-27T21:58:12.185Z,101023.67
2018-11-27T22:00:42.616Z,101032.20
2018-11-27T22:03:12.719Z,101030.08
2018-11-27T22:05:42.433Z,101023.18
2018-11-27T22:08:12.016Z,101026.61
2018-11-27T22:10:41.364Z,101029.56
2018-11-27T22:13:12.253Z,101027.70
2018-11-27T22:15:42.320Z,101029.87
2018-11-27T22:18:12.276Z,101034.14
2018-11-27T22:20:41.574Z,101041.44
2018-11-27T22:23:11.094Z,101039.19
2018-11-27T22:25:40.465Z,101042.12
2018-11-27T22:28:10.225Z,101035.99
2018-11-27T22:30:39.498Z,101035.77
2018-11-27T22:33:09.403Z,101043.06
2018-11-27T22:35:38.673Z,101042.45
2018-11-27T22:38:08.653Z,101037.80
2018-11-27T22:40:38.169Z,101043.06
2018-11-27T22:43:08.642Z,101041.73
2018-11-27T22:45:39.109Z,101038.58
2018-11-27T22:48:09.742Z,101039.19
2018-11-27T22:50:38.992Z,101039.72
2018-11-27T22:53:09.079Z,101041.98
2018-11-27T22:55:38.407Z,101045.86
2018-11-27T22:58:08.348Z,101045.06
2018-11-27T23:00:42.651Z,101052.81
2018-11-27T23:03:11.983Z,101054.77
2018-11-27T23:05:41.256Z,101054.94
2018-11-27T23:08:10.679Z,101058.81
2018-11-27T23:10:41.200Z,101053.39
2018-11-27T23:13:10.624Z,101052.37
2018-11-27T23:15:39.964Z,101049.34
2018-11-27T23:18:09.145Z,101049.89
2018-11-27T23:20:38.494Z,101051.91
2018-11-27T23:23:07.987Z,101047.65
2018-11-27T23:25:37.284Z,101049.27
2018-11-27T23:28:06.755Z,101052.55
2018-11-27T23:30:36.183Z,101048.11
2018-11-27T23:33:05.732Z,101039.03
2018-11-27T23:35:35.012Z,101043.23
2018-11-27T23:38:04.604Z,101040.13
2018-11-27T23:40:34.030Z,101041.66
2018-11-27T23:43:03.846Z,101040.33
2018-11-27T23:45:32.625Z,101037.06
2018-11-27T23:48:01.942Z,101037.22
2018-11-27T23:50:31.470Z,101031.64
2018-11-27T23:53:00.755Z,101028.82
2018-11-27T23:55:29.975Z,101033.52
2018-11-27T23:57:59.300Z,101026.84
